sensor_id;sensor_type;location;lat;lon;timestamp;P1;durP1;ratioP1;P2;durP2;ratioP2
2912;SDS011;1466;48.778;9.166;2024-01-27T00:02:17;16.37;;;6.43;;
2912;SDS011;1466;48.778;9.166;2024-01-27T00:04:43;17.60;;;8.07;;
2912;SDS011;1466;48.778;9.166;2024-01-27T00:07:08;11.77;;;6.40;;
2912;SDS011;1466;48.778;9.166;2024-01-27T00:09:34;23.03;;;7.03;;
2912;SDS011;1466;48.778;9.166;2024-01-27T00:12:00;13.87;;;6.57;;
2912;SDS011;1466;48.778;9.166;2024-01-27T00:14:26;18.40;;;7.23;;
2912;SDS011;1466;48.778;9.166;2024-01-27T00:16:52;15.18;;;5.72;;
2912;SDS011;1466;48.778;9.166;2024-01-27T00:19:18;11.73;;;5.90;;
2912;SDS011;1466;48.778;9.166;2024-01-27T00:21:43;13.50;;;6.07;;
2912;SDS011;1466;48.778;9.166;2024-01-27T00:24:09;15.80;;;6.47;;
2912;SDS011;1466;48.778;9.166;2024-01-27T00:26:34;14.33;;;6.83;;
2912;SDS011;1466;48.778;9.166;2024-01-27T00:29:03;16.80;;;7.27;;
2912;SDS011;1466;48.778;9.166;2024-01-27T00:31:28;21.10;;;7.38;;
2912;SDS011;1466;48.778;9.166;2024-01-27T00:33:54;18.53;;;7.00;;
2912;SDS011;1466;48.778;9.166;2024-01-27T00:36:19;10.83;;;5.97;;
2912;SDS011;1466;48.778;9.166;2024-01-27T00:38:45;13.77;;;6.07;;
2912;SDS011;1466;48.778;9.166;2024-01-27T00:41:15;40.80;;;9.07;;
2912;SDS011;1466;48.778;9.166;2024-01-27T00:43:45;11.43;;;6.00;;
2912;SDS011;1466;48.778;9.166;2024-01-27T00:46:11;16.60;;;6.45;;
2912;SDS011;1466;48.778;9.166;2024-01-27T00:48:36;18.83;;;6.23;;
2912;SDS011;1466;48.778;9.166;2024-01-27T00:51:02;17.27;;;6.03;;
2912;SDS011;1466;48.778;9.166;2024-01-27T00:53:28;23.93;;;6.63;;
2912;SDS011;1466;48.778;9.166;2024-01-27T00:55:53;19.20;;;7.10;;
2912;SDS011;1466;48.778;9.166;2024-01-27T00:58:19;16.30;;;6.50;;
2912;SDS011;1466;48.778;9.166;2024-01-27T01:00:45;11.73;;;5.97;;
2912;SDS011;1466;48.778;9.166;2024-01-27T01:03:10;15.07;;;7.00;;
2912;SDS011;1466;48.778;9.166;2024-01-27T01:05:36;11.70;;;5.83;;
2912;SDS011;1466;48.778;9.166;2024-01-27T01:08:02;18.80;;;6.30;;
2912;SDS011;1466;48.778;9.166;2024-01-27T01:10:28;21.93;;;7.63;;
2912;SDS011;1466;48.778;9.166;2024-01-27T01:12:54;14.77;;;6.40;;
2912;SDS011;1466;48.778;9.166;2024-01-27T01:15:19;14.13;;;6.67;;
2912;SDS011;1466;48.778;9.166;2024-01-27T01:17:45;17.37;;;6.30;;
2912;SDS011;1466;48.778;9.166;2024-01-27T01:20:11;12.03;;;6.30;;
2912;SDS011;1466;48.778;9.166;2024-01-27T01:22:36;15.53;;;6.67;;
2912;SDS011;1466;48.778;9.166;2024-01-27T01:25:02;18.27;;;7.03;;
2912;SDS011;1466;48.778;9.166;2024-01-27T01:27:28;14.40;;;6.00;;
2912;SDS011;1466;48.778;9.166;2024-01-27T01:29:53;14.57;;;6.33;;
2912;SDS011;1466;48.778;9.166;2024-01-27T01:32:19;14.90;;;6.50;;
2912;SDS011;1466;48.778;9.166;2024-01-27T01:34:45;21.20;;;7.80;;
2912;SDS011;1466;48.778;9.166;2024-01-27T01:37:11;16.67;;;6.85;;
2912;SDS011;1466;48.778;9.166;2024-01-27T01:39:38;13.20;;;6.20;;
2912;SDS011;1466;48.778;9.166;2024-01-27T01:42:04;15.20;;;6.47;;
2912;SDS011;1466;48.778;9.166;2024-01-27T01:44:30;11.23;;;6.30;;
2912;SDS011;1466;48.778;9.166;2024-01-27T01:46:59;14.10;;;6.05;;
2912;SDS011;1466;48.778;9.166;2024-01-27T01:49:24;19.50;;;6.90;;
2912;SDS011;1466;48.778;9.166;2024-01-27T01:51:51;12.23;;;6.32;;
2912;SDS011;1466;48.778;9.166;2024-01-27T01:54:17;13.90;;;6.17;;
2912;SDS011;1466;48.778;9.166;2024-01-27T01:56:43;10.93;;;5.70;;
2912;SDS011;1466;48.778;9.166;2024-01-27T01:59:08;16.73;;;6.70;;
2912;SDS011;1466;48.778;9.166;2024-01-27T02:01:34;16.43;;;6.80;;
2912;SDS011;1466;48.778;9.166;2024-01-27T02:04:00;14.13;;;6.57;;
2912;SDS011;1466;48.778;9.166;2024-01-27T02:06:25;15.47;;;6.83;;
2912;SDS011;1466;48.778;9.166;2024-01-27T02:08:51;15.63;;;6.43;;
2912;SDS011;1466;48.778;9.166;2024-01-27T02:11:16;18.47;;;7.00;;
2912;SDS011;1466;48.778;9.166;2024-01-27T02:13:42;10.67;;;5.90;;
2912;SDS011;1466;48.778;9.166;2024-01-27T02:16:08;16.60;;;6.13;;
2912;SDS011;1466;48.778;9.166;2024-01-27T02:18:34;11.13;;;6.50;;
2912;SDS011;1466;48.778;9.166;2024-01-27T02:21:00;19.77;;;7.13;;
2912;SDS011;1466;48.778;9.166;2024-01-27T02:23:26;18.03;;;7.00;;
2912;SDS011;1466;48.778;9.166;2024-01-27T02:25:51;19.63;;;7.77;;
2912;SDS011;1466;48.778;9.166;2024-01-27T02:28:17;16.53;;;7.37;;
2912;SDS011;1466;48.778;9.166;2024-01-27T02:30:43;11.30;;;6.23;;
2912;SDS011;1466;48.778;9.166;2024-01-27T02:33:08;16.63;;;6.75;;
2912;SDS011;1466;48.778;9.166;2024-01-27T02:35:34;13.20;;;6.70;;
2912;SDS011;1466;48.778;9.166;2024-01-27T02:38:00;12.70;;;6.40;;
2912;SDS011;1466;48.778;9.166;2024-01-27T02:40:25;16.20;;;7.03;;
2912;SDS011;1466;48.778;9.166;2024-01-27T02:42:51;13.67;;;6.63;;
2912;SDS011;1466;48.778;9.166;2024-01-27T02:45:17;15.60;;;6.37;;
2912;SDS011;1466;48.778;9.166;2024-01-27T02:47:42;16.20;;;7.10;;
2912;SDS011;1466;48.778;9.166;2024-01-27T02:50:08;21.03;;;7.40;;
2912;SDS011;1466;48.778;9.166;2024-01-27T02:52:34;10.88;;;5.85;;
2912;SDS011;1466;48.778;9.166;2024-01-27T02:55:00;13.40;;;6.60;;
2912;SDS011;1466;48.778;9.166;2024-01-27T02:57:25;15.33;;;6.83;;
2912;SDS011;1466;48.778;9.166;2024-01-27T02:59:51;15.37;;;6.73;;
2912;SDS011;1466;48.778;9.166;2024-01-27T03:02:17;26.63;;;7.40;;
2912;SDS011;1466;48.778;9.166;2024-01-27T03:04:42;18.13;;;7.20;;
2912;SDS011;1466;48.778;9.166;2024-01-27T03:07:08;12.17;;;6.07;;
2912;SDS011;1466;48.778;9.166;2024-01-27T03:09:37;20.17;;;7.80;;
2912;SDS011;1466;48.778;9.166;2024-01-27T03:12:02;14.63;;;7.00;;
2912;SDS011;1466;48.778;9.166;2024-01-27T03:14:28;11.27;;;6.33;;
2912;SDS011;1466;48.778;9.166;2024-01-27T03:16:54;30.23;;;7.50;;
2912;SDS011;1466;48.778;9.166;2024-01-27T03:19:19;25.50;;;8.17;;
2912;SDS011;1466;48.778;9.166;2024-01-27T03:21:45;10.50;;;5.40;;
2912;SDS011;1466;48.778;9.166;2024-01-27T03:24:10;9.70;;;5.87;;
2912;SDS011;1466;48.778;9.166;2024-01-27T03:26:36;13.17;;;6.10;;
2912;SDS011;1466;48.778;9.166;2024-01-27T03:29:02;20.53;;;7.10;;
2912;SDS011;1466;48.778;9.166;2024-01-27T03:31:31;16.97;;;7.17;;
2912;SDS011;1466;48.778;9.166;2024-01-27T03:34:00;15.95;;;7.05;;
2912;SDS011;1466;48.778;9.166;2024-01-27T03:36:26;13.68;;;6.38;;
2912;SDS011;1466;48.778;9.166;2024-01-27T03:38:52;14.67;;;6.20;;
2912;SDS011;1466;48.778;9.166;2024-01-27T03:41:18;16.30;;;6.65;;
2912;SDS011;1466;48.778;9.166;2024-01-27T03:43:44;26.87;;;8.30;;
2912;SDS011;1466;48.778;9.166;2024-01-27T03:46:09;16.77;;;6.57;;
2912;SDS011;1466;48.778;9.166;2024-01-27T03:48:35;10.80;;;6.63;;
2912;SDS011;1466;48.778;9.166;2024-01-27T03:51:01;18.50;;;7.03;;
2912;SDS011;1466;48.778;9.166;2024-01-27T03:53:27;15.43;;;6.23;;
2912;SDS011;1466;48.778;9.166;2024-01-27T03:55:52;15.97;;;6.90;;
2912;SDS011;1466;48.778;9.166;2024-01-27T03:58:18;20.90;;;7.03;;
2912;SDS011;1466;48.778;9.166;2024-01-27T04:00:44;15.13;;;6.33;;
2912;SDS011;1466;48.778;9.166;2024-01-27T04:03:10;16.05;;;7.05;;
2912;SDS011;1466;48.778;9.166;2024-01-27T04:05:36;11.43;;;6.23;;
2912;SDS011;1466;48.778;9.166;2024-01-27T04:08:01;16.07;;;6.63;;
2912;SDS011;1466;48.778;9.166;2024-01-27T04:10:27;15.53;;;7.30;;
2912;SDS011;1466;48.778;9.166;2024-01-27T04:12:53;12.93;;;6.53;;
2912;SDS011;1466;48.778;9.166;2024-01-27T04:15:18;14.03;;;6.50;;
2912;SDS011;1466;48.778;9.166;2024-01-27T04:17:44;19.43;;;7.67;;
2912;SDS011;1466;48.778;9.166;2024-01-27T04:20:10;13.77;;;6.50;;
2912;SDS011;1466;48.778;9.166;2024-01-27T04:22:36;12.20;;;6.50;;
2912;SDS011;1466;48.778;9.166;2024-01-27T04:25:02;18.40;;;6.20;;
2912;SDS011;1466;48.778;9.166;2024-01-27T04:27:28;13.55;;;5.95;;
2912;SDS011;1466;48.778;9.166;2024-01-27T04:29:54;18.87;;;6.90;;
2912;SDS011;1466;48.778;9.166;2024-01-27T04:32:20;16.70;;;7.03;;
2912;SDS011;1466;48.778;9.166;2024-01-27T04:34:46;17.70;;;6.70;;
2912;SDS011;1466;48.778;9.166;2024-01-27T04:37:12;16.63;;;7.03;;
2912;SDS011;1466;48.778;9.166;2024-01-27T04:39:38;12.93;;;6.30;;
2912;SDS011;1466;48.778;9.166;2024-01-27T04:42:03;19.10;;;6.97;;
2912;SDS011;1466;48.778;9.166;2024-01-27T04:44:31;15.27;;;7.18;;
2912;SDS011;1466;48.778;9.166;2024-01-27T04:46:57;14.20;;;6.60;;
2912;SDS011;1466;48.778;9.166;2024-01-27T04:49:22;12.67;;;6.70;;
2912;SDS011;1466;48.778;9.166;2024-01-27T04:51:48;21.37;;;7.27;;
2912;SDS011;1466;48.778;9.166;2024-01-27T04:54:14;17.33;;;6.63;;
2912;SDS011;1466;48.778;9.166;2024-01-27T04:56:39;11.23;;;6.47;;
2912;SDS011;1466;48.778;9.166;2024-01-27T04:59:05;13.03;;;6.40;;
2912;SDS011;1466;48.778;9.166;2024-01-27T05:01:31;15.73;;;7.00;;
2912;SDS011;1466;48.778;9.166;2024-01-27T05:03:57;14.80;;;6.05;;
2912;SDS011;1466;48.778;9.166;2024-01-27T05:06:22;25.47;;;7.83;;
2912;SDS011;1466;48.778;9.166;2024-01-27T05:08:48;22.37;;;7.80;;
2912;SDS011;1466;48.778;9.166;2024-01-27T05:11:13;15.33;;;6.47;;
2912;SDS011;1466;48.778;9.166;2024-01-27T05:13:40;16.38;;;6.80;;
2912;SDS011;1466;48.778;9.166;2024-01-27T05:16:06;14.77;;;6.47;;
2912;SDS011;1466;48.778;9.166;2024-01-27T05:18:31;15.93;;;6.40;;
2912;SDS011;1466;48.778;9.166;2024-01-27T05:20:57;12.50;;;6.07;;
2912;SDS011;1466;48.778;9.166;2024-01-27T05:23:23;13.50;;;6.33;;
2912;SDS011;1466;48.778;9.166;2024-01-27T05:25:48;12.43;;;5.70;;
2912;SDS011;1466;48.778;9.166;2024-01-27T05:28:14;13.80;;;6.00;;
2912;SDS011;1466;48.778;9.166;2024-01-27T05:30:40;18.27;;;7.20;;
2912;SDS011;1466;48.778;9.166;2024-01-27T05:33:05;15.37;;;6.73;;
2912;SDS011;1466;48.778;9.166;2024-01-27T05:35:31;25.10;;;7.80;;
2912;SDS011;1466;48.778;9.166;2024-01-27T05:37:56;11.87;;;6.77;;
2912;SDS011;1466;48.778;9.166;2024-01-27T05:40:22;19.27;;;6.93;;
2912;SDS011;1466;48.778;9.166;2024-01-27T05:42:47;17.57;;;7.03;;
2912;SDS011;1466;48.778;9.166;2024-01-27T05:45:14;19.15;;;7.65;;
2912;SDS011;1466;48.778;9.166;2024-01-27T05:47:40;24.33;;;8.27;;
2912;SDS011;1466;48.778;9.166;2024-01-27T05:50:06;17.15;;;6.43;;
2912;SDS011;1466;48.778;9.166;2024-01-27T05:52:33;12.70;;;6.35;;
2912;SDS011;1466;48.778;9.166;2024-01-27T05:54:59;19.30;;;7.70;;
2912;SDS011;1466;48.778;9.166;2024-01-27T05:57:25;16.50;;;6.83;;
2912;SDS011;1466;48.778;9.166;2024-01-27T05:59:50;30.83;;;8.37;;
2912;SDS011;1466;48.778;9.166;2024-01-27T06:02:16;40.23;;;10.23;;
2912;SDS011;1466;48.778;9.166;2024-01-27T06:04:42;12.80;;;6.35;;
2912;SDS011;1466;48.778;9.166;2024-01-27T06:07:08;17.27;;;7.47;;
2912;SDS011;1466;48.778;9.166;2024-01-27T06:09:34;18.90;;;7.17;;
2912;SDS011;1466;48.778;9.166;2024-01-27T06:12:01;17.35;;;7.32;;
2912;SDS011;1466;48.778;9.166;2024-01-27T06:14:27;21.23;;;7.97;;
2912;SDS011;1466;48.778;9.166;2024-01-27T06:16:53;19.87;;;7.87;;
2912;SDS011;1466;48.778;9.166;2024-01-27T06:19:18;23.60;;;8.40;;
2912;SDS011;1466;48.778;9.166;2024-01-27T06:21:44;27.10;;;9.00;;
2912;SDS011;1466;48.778;9.166;2024-01-27T06:24:09;25.37;;;10.00;;
2912;SDS011;1466;48.778;9.166;2024-01-27T06:26:35;16.27;;;6.60;;
2912;SDS011;1466;48.778;9.166;2024-01-27T06:29:01;24.53;;;7.93;;
2912;SDS011;1466;48.778;9.166;2024-01-27T06:31:27;17.23;;;7.25;;
2912;SDS011;1466;48.778;9.166;2024-01-27T06:33:53;22.47;;;8.50;;
2912;SDS011;1466;48.778;9.166;2024-01-27T06:36:20;27.95;;;8.50;;
2912;SDS011;1466;48.778;9.166;2024-01-27T06:38:48;20.08;;;7.95;;
2912;SDS011;1466;48.778;9.166;2024-01-27T06:41:13;20.43;;;7.43;;
2912;SDS011;1466;48.778;9.166;2024-01-27T06:43:39;15.03;;;6.50;;
2912;SDS011;1466;48.778;9.166;2024-01-27T06:46:04;25.50;;;8.13;;
2912;SDS011;1466;48.778;9.166;2024-01-27T06:48:30;14.93;;;6.70;;
2912;SDS011;1466;48.778;9.166;2024-01-27T06:50:56;27.80;;;8.93;;
2912;SDS011;1466;48.778;9.166;2024-01-27T06:53:21;21.53;;;8.13;;
2912;SDS011;1466;48.778;9.166;2024-01-27T06:55:47;24.53;;;9.07;;
2912;SDS011;1466;48.778;9.166;2024-01-27T06:58:12;21.40;;;8.10;;
2912;SDS011;1466;48.778;9.166;2024-01-27T07:00:38;30.63;;;9.80;;
2912;SDS011;1466;48.778;9.166;2024-01-27T07:03:03;14.53;;;7.17;;
2912;SDS011;1466;48.778;9.166;2024-01-27T07:05:29;23.97;;;9.00;;
2912;SDS011;1466;48.778;9.166;2024-01-27T07:07:57;31.25;;;7.72;;
2912;SDS011;1466;48.778;9.166;2024-01-27T07:10:22;22.43;;;8.00;;
2912;SDS011;1466;48.778;9.166;2024-01-27T07:12:48;21.63;;;8.57;;
2912;SDS011;1466;48.778;9.166;2024-01-27T07:15:13;22.27;;;8.13;;
2912;SDS011;1466;48.778;9.166;2024-01-27T07:17:39;17.03;;;7.40;;
2912;SDS011;1466;48.778;9.166;2024-01-27T07:20:05;25.00;;;7.93;;
2912;SDS011;1466;48.778;9.166;2024-01-27T07:22:31;25.67;;;8.13;;
2912;SDS011;1466;48.778;9.166;2024-01-27T07:24:58;16.67;;;7.47;;
2912;SDS011;1466;48.778;9.166;2024-01-27T07:27:24;26.47;;;8.60;;
2912;SDS011;1466;48.778;9.166;2024-01-27T07:29:50;17.47;;;7.57;;
2912;SDS011;1466;48.778;9.166;2024-01-27T07:32:16;13.40;;;7.00;;
2912;SDS011;1466;48.778;9.166;2024-01-27T07:34:42;21.73;;;7.00;;
2912;SDS011;1466;48.778;9.166;2024-01-27T07:37:08;25.05;;;8.57;;
2912;SDS011;1466;48.778;9.166;2024-01-27T07:39:34;13.60;;;6.77;;
2912;SDS011;1466;48.778;9.166;2024-01-27T07:42:00;19.90;;;6.93;;
2912;SDS011;1466;48.778;9.166;2024-01-27T07:44:26;22.07;;;7.37;;
2912;SDS011;1466;48.778;9.166;2024-01-27T07:46:52;15.20;;;6.95;;
2912;SDS011;1466;48.778;9.166;2024-01-27T07:49:18;24.53;;;8.77;;
2912;SDS011;1466;48.778;9.166;2024-01-27T07:51:44;17.60;;;7.70;;
2912;SDS011;1466;48.778;9.166;2024-01-27T07:54:09;27.23;;;8.20;;
2912;SDS011;1466;48.778;9.166;2024-01-27T07:56:35;17.50;;;7.33;;
2912;SDS011;1466;48.778;9.166;2024-01-27T07:59:02;37.30;;;11.07;;
2912;SDS011;1466;48.778;9.166;2024-01-27T08:01:27;17.47;;;7.23;;
2912;SDS011;1466;48.778;9.166;2024-01-27T08:03:53;24.53;;;9.00;;
2912;SDS011;1466;48.778;9.166;2024-01-27T08:06:21;21.00;;;8.00;;
2912;SDS011;1466;48.778;9.166;2024-01-27T08:08:54;20.50;;;7.65;;
2912;SDS011;1466;48.778;9.166;2024-01-27T08:11:20;25.53;;;9.03;;
2912;SDS011;1466;48.778;9.166;2024-01-27T08:13:46;14.73;;;8.10;;
2912;SDS011;1466;48.778;9.166;2024-01-27T08:16:12;32.60;;;10.57;;
2912;SDS011;1466;48.778;9.166;2024-01-27T08:18:39;25.75;;;9.02;;
2912;SDS011;1466;48.778;9.166;2024-01-27T08:21:07;11.70;;;7.53;;
2912;SDS011;1466;48.778;9.166;2024-01-27T08:23:33;22.97;;;8.40;;
2912;SDS011;1466;48.778;9.166;2024-01-27T08:25:58;24.80;;;8.03;;
2912;SDS011;1466;48.778;9.166;2024-01-27T08:28:24;25.00;;;8.70;;
2912;SDS011;1466;48.778;9.166;2024-01-27T08:30:50;31.80;;;9.00;;
2912;SDS011;1466;48.778;9.166;2024-01-27T08:33:15;20.80;;;8.90;;
2912;SDS011;1466;48.778;9.166;2024-01-27T08:35:41;25.27;;;9.13;;
2912;SDS011;1466;48.778;9.166;2024-01-27T08:38:06;26.07;;;8.83;;
2912;SDS011;1466;48.778;9.166;2024-01-27T08:40:34;23.38;;;9.25;;
2912;SDS011;1466;48.778;9.166;2024-01-27T08:43:00;16.02;;;8.30;;
2912;SDS011;1466;48.778;9.166;2024-01-27T08:45:26;18.23;;;9.10;;
2912;SDS011;1466;48.778;9.166;2024-01-27T08:47:52;18.67;;;8.60;;
2912;SDS011;1466;48.778;9.166;2024-01-27T08:50:18;28.97;;;10.20;;
2912;SDS011;1466;48.778;9.166;2024-01-27T08:52:44;18.57;;;8.47;;
2912;SDS011;1466;48.778;9.166;2024-01-27T08:55:11;36.80;;;12.20;;
2912;SDS011;1466;48.778;9.166;2024-01-27T08:57:36;23.03;;;9.10;;
2912;SDS011;1466;48.778;9.166;2024-01-27T09:00:02;15.53;;;8.53;;
2912;SDS011;1466;48.778;9.166;2024-01-27T09:02:28;22.20;;;10.25;;
2912;SDS011;1466;48.778;9.166;2024-01-27T09:04:54;20.23;;;8.90;;
2912;SDS011;1466;48.778;9.166;2024-01-27T09:07:20;31.05;;;9.00;;
2912;SDS011;1466;48.778;9.166;2024-01-27T09:09:45;23.20;;;9.80;;
2912;SDS011;1466;48.778;9.166;2024-01-27T09:12:11;17.63;;;8.30;;
2912;SDS011;1466;48.778;9.166;2024-01-27T09:14:37;24.37;;;9.87;;
2912;SDS011;1466;48.778;9.166;2024-01-27T09:17:02;19.20;;;9.07;;
2912;SDS011;1466;48.778;9.166;2024-01-27T09:19:28;24.07;;;9.20;;
2912;SDS011;1466;48.778;9.166;2024-01-27T09:21:54;16.80;;;8.50;;
2912;SDS011;1466;48.778;9.166;2024-01-27T09:24:19;33.27;;;10.43;;
2912;SDS011;1466;48.778;9.166;2024-01-27T09:26:45;22.20;;;8.93;;
2912;SDS011;1466;48.778;9.166;2024-01-27T09:29:10;31.60;;;10.97;;
2912;SDS011;1466;48.778;9.166;2024-01-27T09:31:36;31.43;;;10.33;;
2912;SDS011;1466;48.778;9.166;2024-01-27T09:34:02;16.97;;;8.53;;
2912;SDS011;1466;48.778;9.166;2024-01-27T09:36:27;23.77;;;9.30;;
2912;SDS011;1466;48.778;9.166;2024-01-27T09:38:53;30.03;;;10.33;;
2912;SDS011;1466;48.778;9.166;2024-01-27T09:41:20;19.58;;;9.00;;
2912;SDS011;1466;48.778;9.166;2024-01-27T09:43:46;23.67;;;9.45;;
2912;SDS011;1466;48.778;9.166;2024-01-27T09:46:15;22.98;;;9.40;;
2912;SDS011;1466;48.778;9.166;2024-01-27T09:48:42;56.00;;;14.13;;
2912;SDS011;1466;48.778;9.166;2024-01-27T09:51:09;24.05;;;10.02;;
2912;SDS011;1466;48.778;9.166;2024-01-27T09:53:35;16.90;;;8.57;;
2912;SDS011;1466;48.778;9.166;2024-01-27T09:56:02;18.42;;;9.25;;
2912;SDS011;1466;48.778;9.166;2024-01-27T09:58:31;18.52;;;7.65;;
2912;SDS011;1466;48.778;9.166;2024-01-27T10:00:57;19.37;;;8.90;;
2912;SDS011;1466;48.778;9.166;2024-01-27T10:03:25;27.30;;;9.90;;
2912;SDS011;1466;48.778;9.166;2024-01-27T10:05:52;21.55;;;8.80;;
2912;SDS011;1466;48.778;9.166;2024-01-27T10:08:20;17.42;;;7.45;;
2912;SDS011;1466;48.778;9.166;2024-01-27T10:10:46;25.55;;;10.32;;
2912;SDS011;1466;48.778;9.166;2024-01-27T10:13:11;34.43;;;10.10;;
2912;SDS011;1466;48.778;9.166;2024-01-27T10:15:42;22.08;;;9.43;;
2912;SDS011;1466;48.778;9.166;2024-01-27T10:18:08;24.33;;;8.67;;
2912;SDS011;1466;48.778;9.166;2024-01-27T10:20:38;27.48;;;9.60;;
2912;SDS011;1466;48.778;9.166;2024-01-27T10:23:13;24.15;;;9.15;;
2912;SDS011;1466;48.778;9.166;2024-01-27T10:25:39;31.48;;;10.60;;
2912;SDS011;1466;48.778;9.166;2024-01-27T10:28:06;27.08;;;8.75;;
2912;SDS011;1466;48.778;9.166;2024-01-27T10:30:33;24.65;;;9.45;;
2912;SDS011;1466;48.778;9.166;2024-01-27T10:32:59;40.87;;;10.83;;
2912;SDS011;1466;48.778;9.166;2024-01-27T10:35:25;23.73;;;9.10;;
2912;SDS011;1466;48.778;9.166;2024-01-27T10:37:51;19.58;;;7.80;;
2912;SDS011;1466;48.778;9.166;2024-01-27T10:40:18;16.27;;;7.25;;
2912;SDS011;1466;48.778;9.166;2024-01-27T10:42:44;19.63;;;7.87;;
2912;SDS011;1466;48.778;9.166;2024-01-27T10:45:10;17.30;;;7.55;;
2912;SDS011;1466;48.778;9.166;2024-01-27T10:47:37;35.28;;;10.43;;
2912;SDS011;1466;48.778;9.166;2024-01-27T10:50:08;21.63;;;8.43;;
2912;SDS011;1466;48.778;9.166;2024-01-27T10:52:37;18.35;;;8.10;;
2912;SDS011;1466;48.778;9.166;2024-01-27T10:55:06;20.45;;;9.18;;
2912;SDS011;1466;48.778;9.166;2024-01-27T10:57:34;38.25;;;10.35;;
2912;SDS011;1466;48.778;9.166;2024-01-27T11:00:02;24.45;;;10.32;;
2912;SDS011;1466;48.778;9.166;2024-01-27T11:02:32;22.08;;;8.90;;
2912;SDS011;1466;48.778;9.166;2024-01-27T11:05:00;14.45;;;8.25;;
2912;SDS011;1466;48.778;9.166;2024-01-27T11:07:32;20.92;;;8.55;;
2912;SDS011;1466;48.778;9.166;2024-01-27T11:09:59;26.45;;;9.23;;
2912;SDS011;1466;48.778;9.166;2024-01-27T11:12:25;24.27;;;9.53;;
2912;SDS011;1466;48.778;9.166;2024-01-27T11:14:51;19.52;;;8.50;;
2912;SDS011;1466;48.778;9.166;2024-01-27T11:17:18;29.88;;;9.13;;
2912;SDS011;1466;48.778;9.166;2024-01-27T11:19:44;22.92;;;8.63;;
2912;SDS011;1466;48.778;9.166;2024-01-27T11:22:31;26.35;;;9.68;;
2912;SDS011;1466;48.778;9.166;2024-01-27T11:27:38;20.08;;;8.80;;
2912;SDS011;1466;48.778;9.166;2024-01-27T11:30:05;24.80;;;9.40;;
2912;SDS011;1466;48.778;9.166;2024-01-27T11:32:37;50.65;;;12.18;;
2912;SDS011;1466;48.778;9.166;2024-01-27T11:35:03;29.80;;;8.33;;
2912;SDS011;1466;48.778;9.166;2024-01-27T11:37:32;22.10;;;8.55;;
2912;SDS011;1466;48.778;9.166;2024-01-27T11:40:07;37.03;;;10.00;;
2912;SDS011;1466;48.778;9.166;2024-01-27T11:42:34;27.98;;;9.52;;
2912;SDS011;1466;48.778;9.166;2024-01-27T11:45:00;26.53;;;9.80;;
2912;SDS011;1466;48.778;9.166;2024-01-27T11:47:26;28.50;;;9.55;;
2912;SDS011;1466;48.778;9.166;2024-01-27T11:49:53;28.88;;;9.40;;
2912;SDS011;1466;48.778;9.166;2024-01-27T11:52:22;32.22;;;10.00;;
2912;SDS011;1466;48.778;9.166;2024-01-27T11:54:58;45.75;;;11.68;;
2912;SDS011;1466;48.778;9.166;2024-01-27T11:57:25;30.20;;;10.02;;
2912;SDS011;1466;48.778;9.166;2024-01-27T11:59:52;18.98;;;8.00;;
2912;SDS011;1466;48.778;9.166;2024-01-27T12:02:18;19.83;;;8.85;;
2912;SDS011;1466;48.778;9.166;2024-01-27T12:04:44;28.93;;;8.80;;
2912;SDS011;1466;48.778;9.166;2024-01-27T12:07:10;29.45;;;10.27;;
2912;SDS011;1466;48.778;9.166;2024-01-27T12:09:36;30.20;;;10.47;;
2912;SDS011;1466;48.778;9.166;2024-01-27T12:12:02;25.47;;;9.27;;
2912;SDS011;1466;48.778;9.166;2024-01-27T12:14:39;24.45;;;9.43;;
2912;SDS011;1466;48.778;9.166;2024-01-27T12:17:08;25.92;;;9.32;;
2912;SDS011;1466;48.778;9.166;2024-01-27T12:19:35;18.60;;;8.65;;
2912;SDS011;1466;48.778;9.166;2024-01-27T12:22:01;23.30;;;9.00;;
2912;SDS011;1466;48.778;9.166;2024-01-27T12:24:27;30.80;;;9.18;;
2912;SDS011;1466;48.778;9.166;2024-01-27T12:26:54;26.07;;;8.53;;
2912;SDS011;1466;48.778;9.166;2024-01-27T12:29:22;32.65;;;9.38;;
2912;SDS011;1466;48.778;9.166;2024-01-27T12:31:48;25.83;;;8.33;;
2912;SDS011;1466;48.778;9.166;2024-01-27T12:34:14;35.58;;;9.65;;
2912;SDS011;1466;48.778;9.166;2024-01-27T12:36:42;24.43;;;9.27;;
2912;SDS011;1466;48.778;9.166;2024-01-27T12:39:08;25.27;;;8.93;;
2912;SDS011;1466;48.778;9.166;2024-01-27T12:41:34;22.63;;;8.75;;
2912;SDS011;1466;48.778;9.166;2024-01-27T12:44:01;27.48;;;9.30;;
2912;SDS011;1466;48.778;9.166;2024-01-27T12:46:29;22.13;;;8.50;;
2912;SDS011;1466;48.778;9.166;2024-01-27T12:48:54;24.50;;;9.07;;
2912;SDS011;1466;48.778;9.166;2024-01-27T12:51:20;21.97;;;9.53;;
2912;SDS011;1466;48.778;9.166;2024-01-27T12:53:45;27.70;;;9.70;;
2912;SDS011;1466;48.778;9.166;2024-01-27T12:56:12;26.17;;;8.93;;
2912;SDS011;1466;48.778;9.166;2024-01-27T12:58:39;28.60;;;9.68;;
2912;SDS011;1466;48.778;9.166;2024-01-27T13:01:07;31.50;;;10.18;;
2912;SDS011;1466;48.778;9.166;2024-01-27T13:03:33;25.83;;;8.88;;
2912;SDS011;1466;48.778;9.166;2024-01-27T13:06:00;21.92;;;8.38;;
2912;SDS011;1466;48.778;9.166;2024-01-27T13:08:26;31.42;;;9.55;;
2912;SDS011;1466;48.778;9.166;2024-01-27T13:10:51;25.40;;;8.73;;
2912;SDS011;1466;48.778;9.166;2024-01-27T13:13:17;22.77;;;8.30;;
2912;SDS011;1466;48.778;9.166;2024-01-27T13:15:43;21.13;;;7.67;;
2912;SDS011;1466;48.778;9.166;2024-01-27T13:18:09;18.63;;;7.40;;
2912;SDS011;1466;48.778;9.166;2024-01-27T13:20:35;17.75;;;6.30;;
2912;SDS011;1466;48.778;9.166;2024-01-27T13:23:01;25.70;;;8.57;;
2912;SDS011;1466;48.778;9.166;2024-01-27T13:25:27;21.50;;;8.23;;
2912;SDS011;1466;48.778;9.166;2024-01-27T13:27:52;19.73;;;7.37;;
2912;SDS011;1466;48.778;9.166;2024-01-27T13:30:18;19.33;;;6.60;;
2912;SDS011;1466;48.778;9.166;2024-01-27T13:32:44;18.97;;;7.53;;
2912;SDS011;1466;48.778;9.166;2024-01-27T13:35:09;16.70;;;7.00;;
2912;SDS011;1466;48.778;9.166;2024-01-27T13:37:35;22.83;;;7.83;;
2912;SDS011;1466;48.778;9.166;2024-01-27T13:40:02;29.00;;;8.23;;
2912;SDS011;1466;48.778;9.166;2024-01-27T13:42:32;32.70;;;9.40;;
2912;SDS011;1466;48.778;9.166;2024-01-27T13:44:58;20.77;;;7.63;;
2912;SDS011;1466;48.778;9.166;2024-01-27T13:47:23;22.73;;;8.03;;
2912;SDS011;1466;48.778;9.166;2024-01-27T13:49:49;20.50;;;8.27;;
2912;SDS011;1466;48.778;9.166;2024-01-27T13:52:15;29.83;;;8.73;;
2912;SDS011;1466;48.778;9.166;2024-01-27T13:54:40;20.17;;;7.77;;
2912;SDS011;1466;48.778;9.166;2024-01-27T13:57:06;23.53;;;8.93;;
2912;SDS011;1466;48.778;9.166;2024-01-27T13:59:33;25.50;;;9.05;;
2912;SDS011;1466;48.778;9.166;2024-01-27T14:01:58;24.73;;;8.53;;
2912;SDS011;1466;48.778;9.166;2024-01-27T14:04:24;16.53;;;7.70;;
2912;SDS011;1466;48.778;9.166;2024-01-27T14:06:53;18.07;;;7.47;;
2912;SDS011;1466;48.778;9.166;2024-01-27T14:09:19;21.10;;;7.22;;
2912;SDS011;1466;48.778;9.166;2024-01-27T14:11:46;25.75;;;8.93;;
2912;SDS011;1466;48.778;9.166;2024-01-27T14:14:11;32.77;;;9.70;;
2912;SDS011;1466;48.778;9.166;2024-01-27T14:16:37;18.73;;;7.27;;
2912;SDS011;1466;48.778;9.166;2024-01-27T14:19:03;23.50;;;7.80;;
2912;SDS011;1466;48.778;9.166;2024-01-27T14:21:29;18.00;;;7.43;;
2912;SDS011;1466;48.778;9.166;2024-01-27T14:23:54;20.40;;;7.60;;
2912;SDS011;1466;48.778;9.166;2024-01-27T14:26:26;20.85;;;7.75;;
2912;SDS011;1466;48.778;9.166;2024-01-27T14:28:56;19.45;;;7.35;;
2912;SDS011;1466;48.778;9.166;2024-01-27T14:31:25;23.27;;;9.32;;
2912;SDS011;1466;48.778;9.166;2024-01-27T14:33:50;19.17;;;8.00;;
2912;SDS011;1466;48.778;9.166;2024-01-27T14:36:16;24.13;;;7.87;;
2912;SDS011;1466;48.778;9.166;2024-01-27T14:38:42;18.67;;;8.27;;
2912;SDS011;1466;48.778;9.166;2024-01-27T14:41:08;26.83;;;9.13;;
2912;SDS011;1466;48.778;9.166;2024-01-27T14:43:36;36.10;;;9.15;;
2912;SDS011;1466;48.778;9.166;2024-01-27T14:46:03;24.33;;;8.75;;
2912;SDS011;1466;48.778;9.166;2024-01-27T14:48:29;26.63;;;9.63;;
2912;SDS011;1466;48.778;9.166;2024-01-27T14:50:55;22.60;;;9.20;;
2912;SDS011;1466;48.778;9.166;2024-01-27T14:53:24;28.05;;;9.57;;
2912;SDS011;1466;48.778;9.166;2024-01-27T14:55:50;25.90;;;9.18;;
2912;SDS011;1466;48.778;9.166;2024-01-27T14:58:16;25.27;;;9.13;;